Terminal Aerodrome Forecast
Issued by NWS Wakefield, VA

Home | Current Version | Previous Version | Text Only | Print | Product List | Glossary On
Versions: 1 2 3 4 5 6 7 8 9 10 11 12 13 14 15 16 17 18 19 20
000
FTUS41 KAKQ 290500
TAFORF
TAF
KORF 290537Z 2906/3006 00000KT P6SM SCT250
     FM291200 20005KT P6SM BKN250
     FM291600 20010KT P6SM SCT250
     FM292100 20005KT P6SM SCT250=

USA.gov is the U.S. government's official web portal to all federal, state and local government web resources and services.